• Join FlightAware (Why Join?)
  • Login
  • US Flag 
Gobble Gobble! 
05:30PM EST


 

Airport Tracker/Info


-or-


 

Live Flight TrackerFlight Track Log ✈ N4097H ✈ 17-Apr-2013 ✈ KPDX - KTIW

Flight Track Log - Related Links

Times and Time Zones

All times are in EDT time to prevent confusion due to time zone crossing. See the N4097H flight status page for this flight to view local times or setup timezone preferences in your user account.

Time Position Orientation Groundspeed Altitude Reporting Facility
EDT Latitude Longitude Course Direction KTS MPH feet Rate Location/Type
04:52PM 46.0994 -122.9231 340° North 150 173 7,100  Level Seattle Center
04:53PM 46.1375 -122.9431 340° North 149 171 7,900 360 Climbing Seattle Center
04:54PM 46.1756 -122.9392 North 141 162 7,900  Level Seattle Center
04:55PM 46.2156 -122.9244 14° North 148 170 8,000 60 Climbing Seattle Center
04:56PM 46.2578 -122.9200 North 150 173 8,100 120 Climbing Seattle Center
04:57PM 46.3083 -122.9133 North 158 182 8,300 -60 Climbing Seattle Center
04:58PM 46.3481 -122.8933 19° North 156 180 8,000 -660 Descending Seattle Center
04:59PM 46.3969 -122.8786 12° North 169 194 7,000 -1,380 Descending Seattle Center
05:00PM 46.4469 -122.8736 North 177 204 5,300 -1,320 Descending Seattle Center
05:01PM 46.4964 -122.8728 North 179 206 4,400 -600 Descending Seattle Center
05:02PM 46.5314 -122.9025 330° Northwest 161 185 4,100 -360 Descending Seattle Center
05:03PM 46.5703 -122.9233 340° North 151 174 3,700 -420 Descending Seattle Center
05:04PM 46.6039 -122.9475 334° Northwest 159 183 3,400 -420 Descending Seattle Center
05:04PM 46.6119 -122.9489 353° North 161 185 3,300 -240 Descending Seattle Center
05:06PM 46.6994 -122.9519 359° North 161 185 2,900 -120 Descending Seattle Center
05:07PM 46.7433 -122.9464 North 159 183 3,000  Climbing Seattle Center
05:08PM 46.7867 -122.9364 North 161 185 3,000 -60 Level Seattle Center
05:09PM 46.8372 -122.9236 10° North 157 181 2,900  Descending Seattle Center
05:10PM 46.8686 -122.9139 12° North 154 177 3,000  Climbing Seattle Center
05:11PM 46.9086 -122.8986 15° North 150 173 2,900 -60 Descending Seattle Center
05:12PM 46.9489 -122.8800 18° North 151 174 2,900  Level Seattle Center
05:13PM 46.9894 -122.8586 20° North 156 180 3,000  Climbing Seattle Center
05:14PM 47.0308 -122.8442 13° North 155 178 3,000  Level Seattle Center
05:15PM 47.0683 -122.8197 24° Northeast 158 182 3,000 -60 Level Seattle Center
05:16PM 47.1069 -122.7697 41° Northeast 157 181 2,900 -60 Descending Seattle Center
05:17PM 47.1381 -122.7317 40° Northeast 153 176 2,900  Level Seattle Center